Accueil
METAR-TAF:

METAR-TAF

Aéroports :

Aéroport de Gran Canaria

Grande Canarie, Espagne

latitude: 27-56N, longitude: 015-23W, altitude: 23 m

Observation

Le bulletin a été fait il y a 17 minutes, à 11:00 UTC
Vent 20 kt de nord/nord-est
Température 25°C
Humidité 61%
Pression 1016 hPa
Visibilité 10 km ou plus
Quelques nuages à une hauteur de 2500 ft

METAR: GCLP 201100Z 03020KT 9999 FEW025 25/17 Q1016 NOSIG

Heure: 12:17 (11:17 UTC)

Prévision

Le bulletin a été fait il y a 3 heures et 17 minutes, à 08:00 UTC
Prévision valable du 20 à 09 UTC au 21 à 09 UTC
Vent 20 kt de nord/nord-est
Visibilité 10 km ou plus
Nuages épars à une hauteur de 2500 ft
Probabilité 30% :
Temporairement
du 20 à 12 UTC au 20 à 19 UTC
Vent 20 kt de nord/nord-est avec des rafales jusqu'à 30 kt

TAF: GCLP 200800Z 2009/2109 02020KT 9999 SCT025 TX27/2014Z TN22/2023Z PROB30 TEMPO 2012/2019 02020G30KT

Observations et prévisions météorologiques de plus de 4000 aéroports (messages METAR et TAF).

Les stations disponibles sont représentées par des disques jaunes et rouges sur la carte.

Passer la souris dessus pour voir le nom de la station.

Cliquer dessus pour voir les observations et prévisions météorologiques.

Pour changer de carte: cliquez sur les boutons verts avec une croix noire pour zoomer, sur le bouton vert avec un tiret pour effectuer un zoom arrière, ou sur les flèches vertes pour les cartes adjacentes.


METAR-TAF: